Aérodrome :
LOGIN :

S'inscrire | Disclaimer

   EN    FR    IT 

 










Légende :    VFR   VFR Marginal   IFR   IFR Intensif   IFR Très Intensif
Visi : 
Plafond : 
>= 8 km
>= 3000ft
5 à 8 km
1000 à 3000 ft
1500m à 5 km
500 à 1000 ft
800 à 1500m
200 à 500 ft
< 800m
< 200 ft
Symboles :   Orages  Brouillard  Fortes neiges  Fortes précipitations  Vent > 20 kt
SIGMETs :   Divers  Orages  Givrage  Turbulence  Onde Orograph.  Cendres Volcan.






- Altitude de l'aérodrome : 72 ft
- Code IATA : UDE


EHVK - Volkel Airbase

DERNIER METAR :
  • 240355Z AUTO 22011KT 190V250 9999 NCD 12/09 Q1001 BLU

METARs EXPIRÉS :
  • 240325Z AUTO 22014KT 200V260 9999 NCD 12/09 Q1001 BLU
  • 240255Z AUTO 23013KT 9999 NCD 12/09 Q1000 BLU
  • 240225Z AUTO 23014KT 200V260 9999 NCD 13/10 Q1000 BLU
  • 240155Z AUTO 23014KT 200V260 9999 NCD 13/11 Q1000 BLU
  • 240131Z AUTO 24013KT 210V270 9999 BKN065 BKN072 BKN078 14/11 Q0999 BLU
  • 240125Z AUTO 24012KT 210V270 9999 FEW015CB BKN062 OVC073 14/11 Q0999 BLU

TAF TAF EHVK
Valide du 24 à 01h jusqu'au 24 à 13h UTC


240008Z 2401/2413 19010KT CAVOK
TEMPO 2322/2402 24012G25KT 3000 SHRA TSRA FEW008 SCT012 SCT018CB
BECMG 2407/2409 20015G25KT



MET'MAP, la Météo Aéronautique d'un coup d'oeil ! - Copyright ORBIFLY Décembre 2007 - Disclaimer

ORBIFLY MET'MAP TEAM :

Programmation & Développement : Alexandra Zaïnal
Sur une idée originale de : Baudouin d'Aumeries
Assistance à la programmation : Marc-Olivier Méhu
Soutien technique & logistique : Manuel Goepfert

Contact : metmap@orbifly.com




SOURCES & CREDITS :

   NOAA